Time;durP1;ratioP1;P1;durP2;ratioP2;P2;SDS_P1;SDS_P2;PMS_P1;PMS_P2;Temp;Humidity;BMP_temperature;BMP_pressure;BME280_temperature;BME280_humidity;BME280_pressure;Samples;Min_cycle;Max_cycle;Signal;HPM_P1;HPM_P2
2023/04/09 00:00:15;;;;;;;1.17;1.00;;;11.20;99.90;;;;;;5001419;28;20202;-92
2023/04/09 00:02:46;;;;;;;2.80;0.97;;;11.30;99.90;;;;;;5000901;28;20294;-91
2023/04/09 00:05:19;;;;;;;2.03;0.93;;;11.20;99.90;;;;;;4995335;28;20214;-92
2023/04/09 00:07:50;;;;;;;1.47;0.83;;;11.40;99.90;;;;;;4994479;28;20733;-93
2023/04/09 00:10:21;;;;;;;1.40;1.00;;;11.40;99.90;;;;;;4995435;28;20269;-93
2023/04/09 00:12:52;;;;;;;1.03;0.70;;;11.50;99.90;;;;;;4994549;28;20706;-94
2023/04/09 00:15:23;;;;;;;1.67;0.87;;;11.30;99.90;;;;;;4995103;28;20243;-93
2023/04/09 00:18:00;;;;;;;1.33;0.73;;;11.30;99.90;;;;;;4993646;28;20272;-94
2023/04/09 00:20:34;;;;;;;1.10;0.90;;;11.10;99.90;;;;;;5019708;28;20216;-92
2023/04/09 00:23:05;;;;;;;1.23;0.60;;;11.10;99.90;;;;;;5032335;28;20206;-92
2023/04/09 00:25:36;;;;;;;1.53;0.80;;;11.20;99.90;;;;;;5030121;28;20283;-91
2023/04/09 00:28:07;;;;;;;1.80;0.63;;;11.00;99.90;;;;;;5027818;28;20767;-93
2023/04/09 00:30:38;;;;;;;1.23;0.63;;;11.00;99.90;;;;;;5028271;28;20205;-91
2023/04/09 00:33:09;;;;;;;1.13;0.70;;;10.90;99.90;;;;;;5009771;28;20281;-91
2023/04/09 00:35:41;;;;;;;2.03;0.90;;;10.90;99.90;;;;;;4997162;28;20210;-90
2023/04/09 00:38:12;;;;;;;2.00;0.90;;;10.90;99.90;;;;;;4995491;28;20660;-91
2023/04/09 00:40:43;;;;;;;1.70;0.60;;;10.80;99.90;;;;;;4987782;28;20279;-90
2023/04/09 00:43:14;;;;;;;1.77;0.83;;;10.90;99.90;;;;;;4999594;28;20245;-89
2023/04/09 00:45:46;;;;;;;0.90;0.60;;;10.90;99.90;;;;;;5012636;28;20221;-90
2023/04/09 00:48:17;;;;;;;3.23;0.90;;;10.90;99.90;;;;;;5012394;28;20225;-91
2023/04/09 00:50:50;;;;;;;0.97;0.70;;;10.90;99.90;;;;;;5014310;28;20206;-91
2023/04/09 00:53:21;;;;;;;2.50;0.80;;;10.90;99.90;;;;;;5018087;28;20264;-91
2023/04/09 00:55:53;;;;;;;1.87;1.00;;;10.80;99.90;;;;;;5001475;28;20210;-92
2023/04/09 00:58:24;;;;;;;1.83;1.10;;;10.80;99.90;;;;;;4995318;28;20679;-91
2023/04/09 01:00:55;;;;;;;0.87;0.80;;;10.90;99.90;;;;;;4997207;28;20256;-91
2023/04/09 01:03:26;;;;;;;1.53;0.90;;;11.00;99.90;;;;;;5001226;28;20750;-92
2023/04/09 01:06:06;;;;;;;1.03;0.80;;;11.00;99.90;;;;;;4999616;28;20584;-93
2023/04/09 01:08:44;;;;;;;3.00;0.90;;;11.00;99.90;;;;;;5000409;28;20214;-93
2023/04/09 01:11:25;;;;;;;1.27;0.70;;;11.10;99.90;;;;;;4998532;28;20638;-93
2023/04/09 01:14:06;;;;;;;0.80;0.80;;;11.20;99.90;;;;;;4998272;28;20214;-93
2023/04/09 01:16:41;;;;;;;1.53;0.80;;;11.20;99.90;;;;;;4982839;28;20214;-93
2023/04/09 01:19:23;;;;;;;1.60;0.80;;;11.20;99.90;;;;;;4977763;28;20688;-94
2023/04/09 01:21:58;;;;;;;3.37;0.97;;;11.20;99.90;;;;;;4978601;28;20341;-92
2023/04/09 01:24:44;;;;;;;0.60;0.60;;;11.20;99.90;;;;;;4994884;28;20350;-93
2023/04/09 01:27:16;;;;;;;2.83;0.90;;;11.20;99.90;;;;;;4998151;28;20214;-93
2023/04/09 01:29:52;;;;;;;0.97;0.87;;;11.30;99.90;;;;;;4997432;28;20206;-93
2023/04/09 01:32:25;;;;;;;1.07;0.90;;;11.30;99.90;;;;;;4997649;28;20230;-93
2023/04/09 01:34:57;;;;;;;2.07;1.10;;;11.30;99.90;;;;;;4997617;28;20585;-93
2023/04/09 01:37:29;;;;;;;2.37;1.10;;;11.10;99.90;;;;;;4998857;28;20242;-93
2023/04/09 01:40:00;;;;;;;2.27;1.10;;;11.10;99.90;;;;;;5012258;28;20663;-91
2023/04/09 01:42:32;;;;;;;1.37;1.20;;;11.00;99.90;;;;;;5018136;28;20209;-91
2023/04/09 01:45:07;;;;;;;2.00;1.13;;;10.90;99.90;;;;;;5017622;28;20205;-91
2023/04/09 01:47:39;;;;;;;2.63;1.23;;;11.00;99.90;;;;;;5016128;28;20670;-91
2023/04/09 01:50:10;;;;;;;2.50;1.30;;;10.90;99.90;;;;;;5015457;28;20209;-91
2023/04/09 01:52:41;;;;;;;1.73;1.30;;;10.80;99.90;;;;;;4998385;28;20238;-90
2023/04/09 01:55:12;;;;;;;1.60;1.00;;;10.80;99.90;;;;;;4997652;28;20702;-91
2023/04/09 01:57:43;;;;;;;2.27;1.30;;;10.80;99.90;;;;;;5013836;28;20202;-91
2023/04/09 02:00:17;;;;;;;2.07;1.20;;;10.80;99.90;;;;;;5005549;28;20261;-91
2023/04/09 02:02:54;;;;;;;3.43;1.50;;;10.70;99.90;;;;;;4998411;28;20273;-91
2023/04/09 02:05:29;;;;;;;2.03;1.30;;;10.70;99.90;;;;;;4996281;28;20297;-90
2023/04/09 02:08:03;;;;;;;2.53;1.37;;;10.70;99.90;;;;;;4998787;28;20210;-91
2023/04/09 02:10:36;;;;;;;3.20;1.50;;;10.70;99.90;;;;;;5016501;28;20256;-92
2023/04/09 02:13:09;;;;;;;2.03;1.40;;;10.60;99.90;;;;;;4987643;28;20226;-92
2023/04/09 02:15:43;;;;;;;5.00;1.70;;;10.60;99.90;;;;;;4985148;28;20198;-90
2023/04/09 02:18:26;;;;;;;1.67;1.50;;;10.60;99.90;;;;;;5001505;28;20210;-88
2023/04/09 02:20:58;;;;;;;1.77;1.47;;;10.60;99.90;;;;;;4991684;28;20277;-87
2023/04/09 02:23:31;;;;;;;1.93;1.57;;;10.60;99.90;;;;;;4996119;28;20229;-88
2023/04/09 02:26:01;;;;;;;3.03;1.30;;;10.50;99.90;;;;;;4994935;28;20210;-88
2023/04/09 02:28:33;;;;;;;3.57;1.60;;;10.50;99.90;;;;;;4988371;28;20210;-87
2023/04/09 02:31:07;;;;;;;4.00;1.73;;;10.50;99.90;;;;;;4995537;28;20293;-88
2023/04/09 02:33:38;;;;;;;1.93;1.47;;;10.50;99.90;;;;;;4995787;28;20312;-88
2023/04/09 02:36:12;;;;;;;2.63;1.40;;;10.50;99.90;;;;;;4989371;28;20258;-87
2023/04/09 02:38:44;;;;;;;3.07;1.50;;;10.40;99.90;;;;;;4985955;28;20208;-88
2023/04/09 02:41:15;;;;;;;1.93;1.50;;;10.40;99.90;;;;;;4994009;28;20239;-88
2023/04/09 02:43:46;;;;;;;2.50;1.80;;;10.40;99.90;;;;;;4986963;28;20210;-87
2023/04/09 02:46:20;;;;;;;3.53;1.60;;;10.30;99.90;;;;;;4990347;28;20210;-87
2023/04/09 02:48:51;;;;;;;1.47;1.30;;;10.30;99.90;;;;;;4997951;28;20201;-88
2023/04/09 02:51:23;;;;;;;2.43;1.53;;;10.30;99.90;;;;;;5003852;28;20245;-87
2023/04/09 02:53:53;;;;;;;2.57;1.50;;;10.30;99.90;;;;;;5003363;28;20238;-87
2023/04/09 02:56:25;;;;;;;1.73;1.20;;;10.30;99.90;;;;;;4994564;28;20214;-88
2023/04/09 02:58:56;;;;;;;2.10;1.53;;;10.30;99.90;;;;;;4994308;28;20219;-87
2023/04/09 03:01:30;;;;;;;2.80;1.10;;;10.20;99.90;;;;;;5007073;28;20214;-88
2023/04/09 03:04:02;;;;;;;2.00;1.50;;;10.20;99.90;;;;;;4998152;28;20210;-87
2023/04/09 03:06:33;;;;;;;1.57;1.33;;;10.20;99.90;;;;;;4993208;28;20207;-88
2023/04/09 03:09:05;;;;;;;2.37;1.40;;;10.20;99.90;;;;;;5009231;28;20233;-88
2023/04/09 03:11:36;;;;;;;1.03;0.97;;;10.20;99.90;;;;;;5000706;28;20210;-88
2023/04/09 03:14:07;;;;;;;2.20;1.40;;;10.20;99.90;;;;;;4998010;28;20230;-88
2023/04/09 03:16:41;;;;;;;1.80;1.17;;;10.20;99.90;;;;;;4980686;28;20210;-87
2023/04/09 03:19:11;;;;;;;2.03;1.23;;;10.10;99.90;;;;;;4985478;28;20252;-86
2023/04/09 03:21:43;;;;;;;1.43;1.00;;;10.20;99.90;;;;;;4994769;28;20198;-88
2023/04/09 03:24:14;;;;;;;1.20;1.10;;;10.20;99.90;;;;;;4992964;28;20202;-87
2023/04/09 03:26:45;;;;;;;1.87;1.30;;;10.10;99.90;;;;;;4994923;28;20275;-88
2023/04/09 03:29:16;;;;;;;3.73;1.03;;;10.20;99.90;;;;;;4986803;28;20527;-88
2023/04/09 03:31:49;;;;;;;2.97;1.37;;;10.20;99.90;;;;;;4978384;28;20206;-88
2023/04/09 03:34:20;;;;;;;2.73;1.40;;;10.20;99.90;;;;;;4985769;28;20223;-88
2023/04/09 03:36:52;;;;;;;1.80;1.37;;;10.20;99.90;;;;;;4988810;28;20269;-89
2023/04/09 03:39:23;;;;;;;1.77;1.30;;;10.20;99.90;;;;;;4986071;28;20207;-88
2023/04/09 03:41:56;;;;;;;1.73;1.30;;;10.20;99.90;;;;;;4991321;28;20226;-89
2023/04/09 03:44:28;;;;;;;2.33;1.50;;;10.20;99.90;;;;;;4991264;28;20655;-87
2023/04/09 03:47:05;;;;;;;2.20;1.73;;;10.10;99.90;;;;;;4992596;28;20202;-87
2023/04/09 03:49:37;;;;;;;3.10;1.70;;;10.10;99.90;;;;;;4977100;28;20213;-88
2023/04/09 03:52:08;;;;;;;4.03;1.77;;;10.00;99.90;;;;;;4995152;28;20218;-88
2023/04/09 03:54:39;;;;;;;2.30;1.57;;;10.00;99.90;;;;;;4997597;28;20234;-87
2023/04/09 03:57:10;;;;;;;2.30;1.90;;;9.90;99.90;;;;;;4983348;28;20222;-87
2023/04/09 03:59:41;;;;;;;3.27;1.50;;;9.90;99.90;;;;;;4983919;28;20229;-88
2023/04/09 04:02:14;;;;;;;1.93;1.43;;;9.90;99.90;;;;;;4982219;28;20648;-88
2023/04/09 04:04:46;;;;;;;1.70;1.30;;;9.90;99.90;;;;;;5003095;28;20213;-88
2023/04/09 04:07:17;;;;;;;1.90;1.40;;;9.80;99.90;;;;;;4996640;28;20225;-88
2023/04/09 04:09:48;;;;;;;2.93;1.20;;;9.90;99.90;;;;;;4992967;28;20233;-89
2023/04/09 04:12:19;;;;;;;2.23;1.40;;;9.90;99.90;;;;;;4990965;28;20217;-88
2023/04/09 04:14:50;;;;;;;1.23;1.03;;;9.80;99.90;;;;;;4979406;28;20243;-88
2023/04/09 04:17:26;;;;;;;2.33;1.30;;;9.80;99.90;;;;;;4974357;28;20203;-89
2023/04/09 04:19:57;;;;;;;1.40;1.17;;;9.70;99.90;;;;;;4974576;28;20242;-88
2023/04/09 04:22:28;;;;;;;1.87;1.27;;;9.70;99.90;;;;;;4986262;28;20265;-89
2023/04/09 04:24:59;;;;;;;2.17;1.13;;;9.70;99.90;;;;;;4648825;28;9999693;-87
2023/04/09 04:27:30;;;;;;;6.93;1.50;;;9.70;99.90;;;;;;4993112;28;20253;-88
2023/04/09 04:30:01;;;;;;;1.53;1.13;;;9.60;99.90;;;;;;4980045;28;20240;-88
2023/04/09 04:32:34;;;;;;;2.13;1.20;;;9.60;99.90;;;;;;4992373;28;20684;-88
2023/04/09 04:35:06;;;;;;;1.27;0.97;;;9.70;99.90;;;;;;4981407;28;20293;-87
2023/04/09 04:37:37;;;;;;;2.63;1.00;;;9.70;99.90;;;;;;4996703;28;20201;-88
2023/04/09 04:40:09;;;;;;;0.97;0.90;;;9.70;99.90;;;;;;4995534;28;20217;-88
2023/04/09 04:42:40;;;;;;;2.03;1.20;;;9.70;99.90;;;;;;4982928;28;20210;-87
2023/04/09 04:45:12;;;;;;;1.63;1.20;;;9.60;99.90;;;;;;4997720;28;20217;-86
2023/04/09 04:47:45;;;;;;;1.80;1.00;;;9.60;99.90;;;;;;4995068;28;20258;-88
2023/04/09 04:50:16;;;;;;;2.00;1.17;;;9.60;99.90;;;;;;4998345;28;20623;-89
2023/04/09 04:52:47;;;;;;;1.10;0.90;;;9.60;99.90;;;;;;4998838;28;20234;-88
2023/04/09 04:55:19;;;;;;;1.37;0.80;;;9.60;99.90;;;;;;4994163;28;20234;-88
2023/04/09 04:57:53;;;;;;;2.67;1.00;;;9.60;99.90;;;;;;5006412;28;20222;-88
2023/04/09 05:00:25;;;;;;;2.73;1.20;;;9.60;99.90;;;;;;5011433;28;20260;-88
2023/04/09 05:03:03;;;;;;;2.20;1.30;;;9.60;99.90;;;;;;4999101;28;20206;-96
2023/04/09 05:05:35;;;;;;;2.23;1.00;;;9.60;99.90;;;;;;5001617;28;20217;-87
2023/04/09 05:08:07;;;;;;;1.93;1.10;;;9.60;99.90;;;;;;4980613;28;20246;-88
2023/04/09 05:10:41;;;;;;;1.00;0.90;;;9.60;99.90;;;;;;4990489;28;20206;-87
2023/04/09 05:13:12;;;;;;;1.57;1.10;;;9.60;99.90;;;;;;4989273;28;20269;-88
2023/04/09 05:15:44;;;;;;;1.87;1.20;;;9.60;99.90;;;;;;4991913;28;20707;-86
2023/04/09 05:18:18;;;;;;;2.60;1.30;;;9.60;99.90;;;;;;4981200;28;20222;-87
2023/04/09 05:20:49;;;;;;;1.53;1.00;;;9.60;99.90;;;;;;5008465;28;20210;-88
2023/04/09 05:23:21;;;;;;;2.07;1.00;;;9.50;99.90;;;;;;4991206;28;20202;-88
2023/04/09 05:25:53;;;;;;;1.10;1.00;;;9.50;99.90;;;;;;4995625;28;20260;-87
2023/04/09 05:28:24;;;;;;;1.43;1.10;;;9.50;99.90;;;;;;4995755;28;20253;-86
2023/04/09 05:30:56;;;;;;;1.13;1.03;;;9.50;99.90;;;;;;4994865;28;20672;-87
2023/04/09 05:33:36;;;;;;;3.10;1.27;;;9.50;99.90;;;;;;4996859;28;20273;-87
2023/04/09 05:36:08;;;;;;;1.27;1.00;;;9.50;99.90;;;;;;4982995;28;20313;-87
2023/04/09 05:38:39;;;;;;;1.83;1.40;;;9.50;99.90;;;;;;4994915;28;20210;-86
2023/04/09 05:41:10;;;;;;;2.30;1.20;;;9.40;99.90;;;;;;4991887;28;20305;-87
2023/04/09 05:43:41;;;;;;;3.80;1.47;;;9.40;99.90;;;;;;4996523;28;20725;-88
2023/04/09 05:46:13;;;;;;;2.67;1.70;;;9.30;99.90;;;;;;4995733;28;20214;-88
2023/04/09 05:48:45;;;;;;;2.10;1.80;;;9.40;99.90;;;;;;4990344;28;20210;-87
2023/04/09 05:51:16;;;;;;;2.87;1.37;;;9.40;99.90;;;;;;4986616;28;20221;-87
2023/04/09 05:53:50;;;;;;;2.33;1.40;;;9.40;99.90;;;;;;4991210;28;20643;-87
2023/04/09 05:56:22;;;;;;;3.40;1.40;;;9.40;99.90;;;;;;4996531;28;20238;-87
2023/04/09 05:58:54;;;;;;;3.27;1.30;;;9.40;99.90;;;;;;4995824;28;20209;-87
2023/04/09 06:01:25;;;;;;;2.13;1.30;;;9.40;99.90;;;;;;5006929;28;20221;-88
2023/04/09 06:03:58;;;;;;;3.30;1.00;;;9.40;99.90;;;;;;4996287;28;20655;-86
2023/04/09 06:06:31;;;;;;;1.30;0.90;;;9.40;99.90;;;;;;4995076;28;20209;-88
2023/04/09 06:09:03;;;;;;;3.00;1.10;;;9.30;99.90;;;;;;4976071;28;20218;-88
2023/04/09 06:11:35;;;;;;;1.50;1.30;;;9.30;99.90;;;;;;4990451;28;20268;-87
2023/04/09 06:14:06;;;;;;;1.27;1.17;;;9.40;99.90;;;;;;4996001;28;20214;-87
2023/04/09 06:16:37;;;;;;;1.90;1.17;;;9.30;99.90;;;;;;4995538;28;20206;-87
2023/04/09 06:19:11;;;;;;;1.43;0.80;;;9.40;99.90;;;;;;4994988;28;20610;-88
2023/04/09 06:21:42;;;;;;;1.63;1.17;;;9.40;99.90;;;;;;4986092;28;20203;-87
2023/04/09 06:24:13;;;;;;;1.47;0.90;;;9.40;99.90;;;;;;4992917;28;20210;-87
2023/04/09 06:26:44;;;;;;;1.33;1.23;;;9.30;99.90;;;;;;4982973;28;20231;-88
2023/04/09 06:29:15;;;;;;;2.67;1.20;;;9.30;99.90;;;;;;4984563;28;20265;-87
2023/04/09 06:31:47;;;;;;;1.47;1.10;;;9.30;99.90;;;;;;4982127;28;20671;-88
2023/04/09 06:34:19;;;;;;;2.23;1.30;;;9.30;99.90;;;;;;4976039;28;20234;-87
2023/04/09 06:36:51;;;;;;;1.70;1.20;;;9.30;99.90;;;;;;4986586;28;20273;-88
2023/04/09 06:39:23;;;;;;;1.30;1.20;;;9.30;99.90;;;;;;4994998;28;20626;-87
2023/04/09 06:41:54;;;;;;;1.73;1.17;;;9.30;99.90;;;;;;4995049;28;20237;-88
2023/04/09 06:44:26;;;;;;;2.20;0.93;;;9.40;99.90;;;;;;4998076;28;20232;-87
2023/04/09 06:46:57;;;;;;;2.00;1.07;;;9.40;99.90;;;;;;5000102;28;20210;-87
2023/04/09 06:49:30;;;;;;;1.30;1.00;;;9.40;99.90;;;;;;4995102;28;20202;-87
2023/04/09 06:52:01;;;;;;;1.07;0.97;;;9.50;99.90;;;;;;4995371;28;20574;-86
2023/04/09 06:54:32;;;;;;;1.67;1.27;;;9.50;99.90;;;;;;4995765;28;20218;-87
2023/04/09 06:57:04;;;;;;;1.40;1.10;;;9.40;99.90;;;;;;4995053;28;20207;-85
2023/04/09 06:59:35;;;;;;;1.80;1.00;;;9.40;99.90;;;;;;4985487;28;20211;-88
2023/04/09 07:02:06;;;;;;;1.33;0.90;;;9.50;99.90;;;;;;4993351;28;20214;-86
2023/04/09 07:04:39;;;;;;;1.10;1.00;;;9.50;99.90;;;;;;5003502;28;20210;-87
2023/04/09 07:07:10;;;;;;;1.40;0.90;;;9.50;99.90;;;;;;5005043;28;20217;-86
2023/04/09 07:09:40;;;;;;;1.87;0.90;;;9.50;99.90;;;;;;4998064;28;20214;-86
2023/04/09 07:12:12;;;;;;;1.77;1.00;;;9.50;99.90;;;;;;4994328;28;20261;-87
2023/04/09 07:14:43;;;;;;;1.47;0.93;;;9.50;99.90;;;;;;4995403;28;20218;-87
2023/04/09 07:17:14;;;;;;;0.80;0.80;;;9.50;99.90;;;;;;4997911;28;20258;-87
2023/04/09 07:19:47;;;;;;;1.63;0.90;;;9.50;99.90;;;;;;4993706;28;20301;-88
2023/04/09 07:22:20;;;;;;;1.17;0.90;;;9.40;99.90;;;;;;4997742;28;20206;-87
2023/04/09 07:24:52;;;;;;;1.57;0.93;;;9.40;99.90;;;;;;4996593;28;20208;-88
2023/04/09 07:27:24;;;;;;;1.90;1.07;;;9.40;99.90;;;;;;4987022;28;20235;-88
2023/04/09 07:29:56;;;;;;;1.10;1.00;;;9.40;99.90;;;;;;4993126;28;20206;-85
2023/04/09 07:32:28;;;;;;;1.03;0.83;;;9.40;99.90;;;;;;4995078;28;20608;-87
2023/04/09 07:35:01;;;;;;;1.40;0.87;;;9.40;99.90;;;;;;4995314;28;20214;-86
2023/04/09 07:37:33;;;;;;;2.20;0.90;;;9.40;99.90;;;;;;4974478;28;20215;-88
2023/04/09 07:40:04;;;;;;;0.70;0.70;;;9.40;99.90;;;;;;4992470;28;20202;-86
2023/04/09 07:42:38;;;;;;;1.20;1.10;;;9.40;99.90;;;;;;4994175;28;20202;-86
2023/04/09 07:45:10;;;;;;;1.07;0.90;;;9.40;99.90;;;;;;4993827;28;20612;-86
2023/04/09 07:47:41;;;;;;;1.87;1.07;;;9.30;99.90;;;;;;4992542;28;20231;-88
2023/04/09 07:50:15;;;;;;;1.00;0.90;;;9.40;99.90;;;;;;4994326;28;20258;-87
2023/04/09 07:52:46;;;;;;;1.60;0.90;;;9.40;99.90;;;;;;4985911;28;20264;-87
2023/04/09 07:55:17;;;;;;;1.17;0.93;;;9.40;99.90;;;;;;4994682;28;20676;-87
2023/04/09 07:57:50;;;;;;;1.60;0.90;;;9.40;99.90;;;;;;4993210;28;20210;-86
2023/04/09 08:00:21;;;;;;;1.90;0.93;;;9.40;99.90;;;;;;4991860;28;20261;-87
2023/04/09 08:02:52;;;;;;;1.13;1.00;;;9.40;99.90;;;;;;4980896;28;20655;-87
2023/04/09 08:05:26;;;;;;;0.60;0.60;;;9.40;99.90;;;;;;4994443;28;20210;-87
2023/04/09 08:07:58;;;;;;;1.27;0.80;;;9.30;99.90;;;;;;4993602;28;20210;-87
2023/04/09 08:10:30;;;;;;;2.00;0.80;;;9.30;99.90;;;;;;4997064;28;20206;-87
2023/04/09 08:13:02;;;;;;;2.03;0.93;;;9.40;99.90;;;;;;4998088;28;20237;-88
2023/04/09 08:15:33;;;;;;;1.10;1.00;;;9.30;99.90;;;;;;4995156;28;20288;-87
2023/04/09 08:18:04;;;;;;;1.90;1.00;;;9.30;99.90;;;;;;4978391;28;20232;-88
2023/04/09 08:20:43;;;;;;;3.50;0.90;;;9.20;99.90;;;;;;4996457;28;20202;-87
2023/04/09 08:23:15;;;;;;;2.90;1.00;;;9.20;99.90;;;;;;4987495;28;20207;-88
2023/04/09 08:25:46;;;;;;;1.83;1.00;;;9.20;99.90;;;;;;4982134;28;20253;-86
2023/04/09 08:28:18;;;;;;;1.50;0.87;;;9.20;99.90;;;;;;4980780;28;20195;-87
2023/04/09 08:30:48;;;;;;;1.20;0.90;;;9.10;99.90;;;;;;4984900;28;20804;-87
2023/04/09 08:33:20;;;;;;;2.00;0.87;;;9.10;99.90;;;;;;4999294;28;20217;-87
2023/04/09 08:35:53;;;;;;;2.13;1.07;;;9.10;99.90;;;;;;5001896;28;20242;-88
2023/04/09 08:38:24;;;;;;;2.03;0.90;;;9.10;99.90;;;;;;5000829;28;20260;-87
2023/04/09 08:40:55;;;;;;;0.80;0.80;;;9.10;99.90;;;;;;5006343;28;20202;-86
2023/04/09 08:43:28;;;;;;;1.80;0.80;;;9.10;99.90;;;;;;5017801;28;20233;-86
2023/04/09 08:46:20;;;;;;;1.10;1.00;;;9.20;99.90;;;;;;5017263;28;20206;-87
2023/04/09 08:48:52;;;;;;;0.97;0.70;;;9.20;99.90;;;;;;5007953;28;20591;-86
2023/04/09 08:51:27;;;;;;;1.13;0.90;;;9.20;99.90;;;;;;4995812;28;20213;-87
2023/04/09 08:53:59;;;;;;;0.80;0.80;;;9.10;99.90;;;;;;4980597;28;20213;-85
2023/04/09 08:56:33;;;;;;;0.80;0.80;;;9.20;99.90;;;;;;4980018;28;20661;-87
2023/04/09 08:59:05;;;;;;;1.70;0.90;;;9.20;99.90;;;;;;4977953;28;20619;-86
2023/04/09 09:01:37;;;;;;;1.97;0.77;;;9.20;99.90;;;;;;4990002;28;20721;-87
2023/04/09 09:04:09;;;;;;;1.00;0.60;;;9.20;99.90;;;;;;5017326;28;20209;-87
2023/04/09 09:06:43;;;;;;;0.83;0.80;;;9.20;99.90;;;;;;5005381;28;20221;-86
2023/04/09 09:09:17;;;;;;;0.90;0.80;;;9.20;99.90;;;;;;4998709;28;20264;-87
2023/04/09 09:11:50;;;;;;;0.73;0.70;;;9.10;99.90;;;;;;4998464;28;20202;-87
2023/04/09 09:14:22;;;;;;;0.90;0.60;;;9.20;99.90;;;;;;4996960;28;20207;-88
2023/04/09 09:17:06;;;;;;;0.90;0.80;;;9.20;99.90;;;;;;4997066;28;20703;-86
2023/04/09 09:19:38;;;;;;;0.70;0.70;;;9.10;99.90;;;;;;4996143;28;20309;-86
2023/04/09 09:22:13;;;;;;;0.70;0.70;;;9.20;99.90;;;;;;4995962;28;20210;-87
2023/04/09 09:24:48;;;;;;;2.03;0.73;;;9.20;99.90;;;;;;4997588;28;20220;-87
2023/04/09 09:27:38;;;;;;;0.87;0.70;;;9.20;99.90;;;;;;4997093;28;20248;-87
2023/04/09 09:30:11;;;;;;;1.20;1.00;;;9.20;99.90;;;;;;4996756;28;20202;-86
2023/04/09 09:32:42;;;;;;;0.90;0.80;;;9.20;99.90;;;;;;4996824;28;20210;-86
2023/04/09 09:35:13;;;;;;;1.70;1.27;;;9.20;99.90;;;;;;4996761;28;20671;-86
2023/04/09 09:37:47;;;;;;;2.90;0.60;;;9.20;99.90;;;;;;4995278;28;20304;-87
2023/04/09 09:40:29;;;;;;;1.20;0.80;;;9.20;99.90;;;;;;4996729;28;20228;-87
2023/04/09 09:43:00;;;;;;;1.73;0.87;;;9.20;99.90;;;;;;4996869;28;20214;-86
2023/04/09 09:45:33;;;;;;;1.47;0.80;;;9.20;99.90;;;;;;4995408;28;20210;-86
2023/04/09 09:48:05;;;;;;;1.73;0.70;;;9.10;99.90;;;;;;4995772;28;20210;-86
2023/04/09 09:50:38;;;;;;;1.10;0.97;;;9.10;99.90;;;;;;4996932;28;20202;-86
2023/04/09 09:53:12;;;;;;;1.17;0.77;;;9.10;99.90;;;;;;4996353;28;20210;-88
2023/04/09 09:55:49;;;;;;;0.77;0.70;;;9.10;99.90;;;;;;4996278;28;20212;-86
2023/04/09 09:58:28;;;;;;;1.97;0.97;;;9.20;99.90;;;;;;4995032;28;20636;-87
2023/04/09 10:01:01;;;;;;;1.00;0.93;;;9.20;99.90;;;;;;4995144;28;20210;-85
2023/04/09 10:03:36;;;;;;;1.20;0.70;;;9.20;99.90;;;;;;4996064;28;20651;-86
2023/04/09 10:06:08;;;;;;;1.43;0.90;;;9.20;99.90;;;;;;4996168;28;20210;-86
2023/04/09 10:08:43;;;;;;;1.90;0.60;;;9.20;99.90;;;;;;4994062;28;20217;-86
2023/04/09 10:11:15;;;;;;;0.90;0.90;;;9.10;99.90;;;;;;4995934;28;20202;-88
2023/04/09 10:13:51;;;;;;;1.37;0.90;;;9.20;99.90;;;;;;4995619;28;20203;-87
2023/04/09 10:16:23;;;;;;;0.80;0.60;;;9.20;99.90;;;;;;4995579;28;20217;-87
2023/04/09 10:18:57;;;;;;;1.37;0.70;;;9.20;99.90;;;;;;4995106;28;20214;-87
2023/04/09 10:21:37;;;;;;;2.20;0.87;;;9.20;99.90;;;;;;4996115;28;20257;-87
2023/04/09 10:24:12;;;;;;;1.83;0.70;;;9.20;99.90;;;;;;4996043;28;20206;-88
2023/04/09 10:26:45;;;;;;;0.83;0.70;;;9.20;99.90;;;;;;4995664;28;20203;-87
2023/04/09 10:29:17;;;;;;;0.93;0.60;;;9.20;99.90;;;;;;4995311;28;20268;-87
2023/04/09 10:31:50;;;;;;;1.50;0.60;;;9.20;99.90;;;;;;4995844;28;20268;-87
2023/04/09 10:34:23;;;;;;;2.70;0.90;;;9.30;99.90;;;;;;4995842;28;20218;-87
2023/04/09 10:36:57;;;;;;;1.30;0.80;;;9.30;99.90;;;;;;5006167;28;20230;-87
2023/04/09 10:39:34;;;;;;;1.53;0.70;;;9.30;99.90;;;;;;5014509;28;20205;-87
2023/04/09 10:42:12;;;;;;;1.87;0.80;;;9.30;99.90;;;;;;5015388;28;20205;-87
2023/04/09 10:44:43;;;;;;;1.10;0.80;;;9.30;99.90;;;;;;5015250;28;20209;-88
2023/04/09 10:47:33;;;;;;;1.57;0.73;;;9.30;99.90;;;;;;5015038;28;20206;-86
2023/04/09 10:50:17;;;;;;;0.87;0.80;;;9.30;99.90;;;;;;5015056;28;20205;-86
2023/04/09 10:52:53;;;;;;;2.13;1.00;;;9.30;99.90;;;;;;5014847;28;20662;-86
2023/04/09 10:55:38;;;;;;;1.43;0.70;;;9.30;99.90;;;;;;5004762;28;20206;-87
2023/04/09 10:58:10;;;;;;;1.47;0.87;;;9.30;99.90;;;;;;4994312;28;20242;-86
2023/04/09 11:00:44;;;;;;;3.60;1.00;;;9.20;99.90;;;;;;4995383;28;20207;-86
2023/04/09 11:03:22;;;;;;;1.00;0.70;;;9.30;99.90;;;;;;4995536;28;20245;-87
2023/04/09 11:05:58;;;;;;;0.77;0.70;;;9.30;99.90;;;;;;4995409;28;20249;-86
2023/04/09 11:08:33;;;;;;;1.33;0.90;;;9.30;99.90;;;;;;4996628;28;20278;-87
2023/04/09 11:11:06;;;;;;;1.00;0.60;;;9.30;99.90;;;;;;4997798;28;20210;-85
2023/04/09 11:13:39;;;;;;;0.70;0.70;;;9.20;99.90;;;;;;4998031;28;20207;-87
2023/04/09 11:16:12;;;;;;;2.40;0.70;;;9.20;99.90;;;;;;4995946;28;20264;-86
2023/04/09 11:18:55;;;;;;;1.37;0.80;;;9.30;99.90;;;;;;4994014;28;20250;-86
2023/04/09 11:21:30;;;;;;;1.43;0.60;;;9.30;99.90;;;;;;4995592;28;20207;-87
2023/04/09 11:24:01;;;;;;;0.90;0.70;;;9.20;99.90;;;;;;4994938;28;20233;-87
2023/04/09 11:26:38;;;;;;;0.90;0.80;;;9.20;99.90;;;;;;4995002;28;20210;-88
2023/04/09 11:29:09;;;;;;;0.87;0.63;;;9.20;99.90;;;;;;4994262;28;20214;-88
2023/04/09 11:31:40;;;;;;;0.80;0.60;;;9.20;99.90;;;;;;4995570;28;20206;-88
2023/04/09 11:34:12;;;;;;;1.10;0.80;;;9.20;99.90;;;;;;4994790;28;20217;-87
2023/04/09 11:36:43;;;;;;;2.67;0.90;;;9.20;99.90;;;;;;4994567;28;20203;-88
2023/04/09 11:39:14;;;;;;;1.43;0.90;;;9.20;99.90;;;;;;4994028;28;20238;-88
2023/04/09 11:41:47;;;;;;;1.67;0.60;;;9.20;99.90;;;;;;4994820;28;20206;-87
2023/04/09 11:44:18;;;;;;;1.20;0.80;;;9.10;99.90;;;;;;4994022;28;20218;-87
2023/04/09 11:46:50;;;;;;;2.07;1.00;;;9.10;99.90;;;;;;4994172;28;20277;-87
2023/04/09 11:49:22;;;;;;;1.67;0.90;;;9.10;99.90;;;;;;4993484;28;20220;-87
2023/04/09 11:51:54;;;;;;;1.63;0.80;;;9.10;99.90;;;;;;4994532;28;20296;-86
2023/04/09 11:54:26;;;;;;;1.20;1.00;;;9.00;99.90;;;;;;4993986;28;20206;-85
2023/04/09 11:57:01;;;;;;;1.20;0.90;;;9.00;99.90;;;;;;4994549;28;20638;-86
2023/04/09 11:59:32;;;;;;;2.03;0.90;;;9.00;99.90;;;;;;4976583;28;20230;-85
2023/04/09 12:02:06;;;;;;;3.47;0.83;;;9.00;99.90;;;;;;4975252;28;20217;-85
2023/04/09 12:04:37;;;;;;;1.43;0.90;;;9.00;99.90;;;;;;4975327;28;20215;-87
2023/04/09 12:07:10;;;;;;;1.30;0.87;;;9.00;99.90;;;;;;4974430;28;20721;-86
2023/04/09 12:09:49;;;;;;;1.47;0.90;;;9.00;99.90;;;;;;4973735;28;20211;-86
2023/04/09 12:12:26;;;;;;;3.57;1.10;;;9.00;99.90;;;;;;4975271;28;20211;-86
2023/04/09 12:14:58;;;;;;;4.23;1.10;;;9.10;99.90;;;;;;4975288;28;20273;-87
2023/04/09 12:17:29;;;;;;;2.33;1.13;;;9.00;99.90;;;;;;4974071;28;20722;-86
2023/04/09 12:20:01;;;;;;;2.23;1.00;;;9.00;99.90;;;;;;4975083;28;20226;-86
2023/04/09 12:22:31;;;;;;;4.37;1.40;;;9.00;99.90;;;;;;4975139;28;20261;-87
2023/04/09 12:25:02;;;;;;;3.13;1.10;;;9.00;99.90;;;;;;4975619;28;20317;-86
2023/04/09 12:27:35;;;;;;;2.60;1.37;;;9.00;99.90;;;;;;4976105;28;20215;-87
2023/04/09 12:30:08;;;;;;;2.43;1.03;;;9.00;99.90;;;;;;4975679;28;20211;-87
2023/04/09 12:32:39;;;;;;;1.23;1.07;;;9.00;99.90;;;;;;4975864;28;20203;-88
2023/04/09 12:35:10;;;;;;;1.07;0.90;;;8.90;99.90;;;;;;4975203;28;20240;-87
2023/04/09 12:37:42;;;;;;;2.63;1.20;;;8.90;99.90;;;;;;4974032;28;20210;-87
2023/04/09 12:40:14;;;;;;;3.00;1.40;;;8.90;99.90;;;;;;4974852;28;20210;-87
2023/04/09 12:42:47;;;;;;;2.33;1.23;;;8.90;99.90;;;;;;4975157;28;20286;-86
2023/04/09 12:45:19;;;;;;;2.57;1.43;;;8.90;99.90;;;;;;4975078;28;20203;-87
2023/04/09 12:47:51;;;;;;;1.30;1.00;;;8.90;99.90;;;;;;4974500;28;20250;-87
2023/04/09 12:50:22;;;;;;;1.67;1.30;;;8.90;99.90;;;;;;4975217;28;20226;-87
2023/04/09 12:52:53;;;;;;;3.00;1.53;;;9.00;99.90;;;;;;4974793;28;20613;-87
2023/04/09 12:55:24;;;;;;;2.33;1.10;;;9.00;99.90;;;;;;4985325;28;20346;-86
2023/04/09 12:58:00;;;;;;;4.67;1.37;;;9.00;99.90;;;;;;4996987;28;20238;-87
2023/04/09 13:00:32;;;;;;;2.17;1.13;;;9.00;99.90;;;;;;4997448;28;20390;-86
2023/04/09 13:03:03;;;;;;;1.43;1.20;;;8.90;99.90;;;;;;4997214;28;20214;-86
2023/04/09 13:05:35;;;;;;;5.67;1.40;;;8.90;99.90;;;;;;4997881;28;20333;-86
2023/04/09 13:08:06;;;;;;;2.20;1.20;;;8.90;99.90;;;;;;4996358;28;20206;-87
2023/04/09 13:10:37;;;;;;;4.20;1.50;;;8.90;99.90;;;;;;5005468;28;20279;-87
2023/04/09 13:13:12;;;;;;;2.50;1.47;;;8.90;99.90;;;;;;5018575;28;20213;-86
2023/04/09 13:15:45;;;;;;;1.90;1.23;;;8.80;99.90;;;;;;5019176;28;20232;-85
2023/04/09 13:18:16;;;;;;;1.47;1.30;;;8.80;99.90;;;;;;5016683;28;20236;-86
2023/04/09 13:20:47;;;;;;;2.03;1.23;;;8.80;99.90;;;;;;5023464;28;20208;-86